createdAt,value
2019-01-02T00:02:31.918Z,5.10
2019-01-02T00:06:34.322Z,5.50
2019-01-02T00:10:36.777Z,5.30
2019-01-02T00:14:39.151Z,5.30
2019-01-02T00:18:41.542Z,4.40
2019-01-02T00:22:43.901Z,4.90
2019-01-02T00:26:46.417Z,4.50
2019-01-02T00:30:48.772Z,5.30
2019-01-02T00:34:51.082Z,5.00
2019-01-02T00:38:54.262Z,5.50
2019-01-02T00:42:56.678Z,5.50
2019-01-02T00:46:59.027Z,5.20
2019-01-02T00:51:01.325Z,6.10
2019-01-02T00:55:04.397Z,4.60
2019-01-02T00:59:06.684Z,4.80
2019-01-02T01:03:09.038Z,4.00
2019-01-02T01:07:13.012Z,4.70
2019-01-02T01:11:15.334Z,4.90
2019-01-02T01:15:17.716Z,5.00
2019-01-02T01:19:20.095Z,5.30
2019-01-02T01:23:22.461Z,6.00
2019-01-02T01:27:24.826Z,5.70
2019-01-02T01:31:27.168Z,5.40
2019-01-02T01:35:29.529Z,5.20
2019-01-02T01:39:31.888Z,5.30
2019-01-02T01:43:34.210Z,4.80
2019-01-02T01:47:36.675Z,5.10
2019-01-02T01:51:39.049Z,4.70
2019-01-02T01:55:41.457Z,5.10
2019-01-02T01:59:43.939Z,5.20
2019-01-02T02:03:46.288Z,4.90
2019-01-02T02:07:48.639Z,5.00
2019-01-02T02:11:50.985Z,4.60
2019-01-02T02:15:53.369Z,4.70
2019-01-02T02:19:55.695Z,4.40
2019-01-02T02:23:58.031Z,4.20
2019-01-02T02:28:00.446Z,4.50
2019-01-02T02:32:02.836Z,4.10
2019-01-02T02:36:05.229Z,3.90
2019-01-02T02:40:08.949Z,4.70
2019-01-02T02:44:11.300Z,4.50
2019-01-02T02:48:13.676Z,4.70
2019-01-02T02:52:16.040Z,4.30
2019-01-02T02:56:18.390Z,4.50
2019-01-02T03:00:20.784Z,4.40
2019-01-02T03:04:23.114Z,4.60
2019-01-02T03:08:25.448Z,4.50
2019-01-02T03:12:27.799Z,3.60
2019-01-02T03:16:30.169Z,4.60
2019-01-02T03:20:32.554Z,4.40
2019-01-02T03:24:34.886Z,4.30
2019-01-02T03:28:37.255Z,4.70
2019-01-02T03:32:39.647Z,4.60
2019-01-02T03:36:42.044Z,4.70
2019-01-02T03:40:44.400Z,4.20
2019-01-02T03:44:46.747Z,4.30
2019-01-02T03:48:49.123Z,4.10
2019-01-02T03:52:51.520Z,4.30
2019-01-02T03:56:53.872Z,4.50
2019-01-02T04:00:56.214Z,4.20
2019-01-02T04:04:59.117Z,4.00
2019-01-02T04:09:01.493Z,4.30
2019-01-02T04:13:03.940Z,4.20
2019-01-02T04:17:06.279Z,4.90
2019-01-02T04:21:08.617Z,4.10
2019-01-02T04:25:10.970Z,4.30
2019-01-02T04:29:13.344Z,4.00
2019-01-02T04:33:15.707Z,3.80
2019-01-02T04:37:18.052Z,3.50
2019-01-02T04:41:20.435Z,4.20
2019-01-02T04:45:22.771Z,4.40
2019-01-02T04:49:25.163Z,4.30
2019-01-02T04:53:27.535Z,4.50
2019-01-02T04:57:29.820Z,4.20
2019-01-02T05:01:32.143Z,5.00
2019-01-02T05:05:34.454Z,4.30
2019-01-02T05:09:36.792Z,4.40
2019-01-02T05:13:39.169Z,4.30
2019-01-02T05:17:41.414Z,4.60
2019-01-02T05:21:43.765Z,5.00
2019-01-02T05:25:46.128Z,4.20
2019-01-02T05:29:48.492Z,4.80
2019-01-02T05:33:50.856Z,4.40
2019-01-02T05:37:54.005Z,4.70
2019-01-02T05:41:55.589Z,4.40
2019-01-02T05:45:57.959Z,4.90
2019-01-02T05:50:00.333Z,5.30
2019-01-02T05:54:02.679Z,4.90
2019-01-02T05:58:05.054Z,4.20
2019-01-02T06:02:07.438Z,4.60
2019-01-02T06:06:09.788Z,4.80
2019-01-02T06:10:13.892Z,5.40
2019-01-02T06:14:16.268Z,5.40
2019-01-02T06:18:18.608Z,4.70
2019-01-02T06:22:20.990Z,4.90
2019-01-02T06:26:23.338Z,4.80
2019-01-02T06:30:25.698Z,5.50
2019-01-02T06:34:28.020Z,5.30
2019-01-02T06:38:30.370Z,5.40
2019-01-02T06:42:32.742Z,5.10
2019-01-02T06:46:35.103Z,5.30
2019-01-02T06:50:37.414Z,4.80
2019-01-02T06:54:39.762Z,4.60
2019-01-02T06:58:42.130Z,5.20
2019-01-02T07:02:44.541Z,4.90
2019-01-02T07:06:46.879Z,4.40
2019-01-02T07:10:49.181Z,4.60
2019-01-02T07:14:51.568Z,5.10
2019-01-02T07:18:53.913Z,4.90
2019-01-02T07:22:56.263Z,4.30
2019-01-02T07:26:58.638Z,4.20
2019-01-02T07:31:00.957Z,4.80
2019-01-02T07:35:23.502Z,5.30
2019-01-02T07:39:41.780Z,4.70
2019-01-02T07:43:56.239Z,4.70
2019-01-02T07:50:18.912Z,4.30
2019-01-02T07:54:39.432Z,4.00
2019-01-02T07:58:57.681Z,4.70
2019-01-02T08:07:19.448Z,5.10
2019-01-02T08:12:31.767Z,5.00
2019-01-02T08:17:18.499Z,5.40
2019-01-02T08:21:36.933Z,5.40
2019-01-02T08:27:57.871Z,5.30
2019-01-02T08:32:25.217Z,5.20
2019-01-02T08:38:00.762Z,5.60
2019-01-02T08:42:21.298Z,5.10
2019-01-02T08:47:37.303Z,5.50
2019-01-02T08:52:08.689Z,5.60
2019-01-02T08:58:27.774Z,5.60
2019-01-02T09:03:07.438Z,5.10
2019-01-02T09:07:26.766Z,6.00
2019-01-02T09:11:47.046Z,5.60
2019-01-02T09:18:03.905Z,5.70
2019-01-02T09:22:41.958Z,6.00
2019-01-02T09:27:00.542Z,6.00
2019-01-02T09:31:31.350Z,6.20
2019-01-02T09:35:45.763Z,5.50
2019-01-02T09:40:06.017Z,5.70
2019-01-02T09:46:22.524Z,6.50
2019-01-02T09:50:43.835Z,5.80
2019-01-02T09:55:08.302Z,5.60
2019-01-02T09:59:37.525Z,6.60
2019-01-02T10:03:53.794Z,5.20
2019-01-02T10:08:12.246Z,5.80
2019-01-02T10:12:36.720Z,4.50
2019-01-02T10:16:51.751Z,5.30
2019-01-02T10:21:09.775Z,5.10
2019-01-02T10:25:25.857Z,4.10
2019-01-02T10:30:42.497Z,3.80
2019-01-02T10:35:56.782Z,4.20
2019-01-02T10:40:21.442Z,4.40
2019-01-02T10:45:39.671Z,5.20
2019-01-02T10:52:00.839Z,5.80
2019-01-02T10:56:29.863Z,4.40
2019-01-02T11:01:44.566Z,6.50
2019-01-02T11:05:58.518Z,5.40
2019-01-02T11:10:21.765Z,5.30
2019-01-02T11:15:20.666Z,6.20
2019-01-02T11:21:46.801Z,4.90
2019-01-02T11:26:08.158Z,5.40
2019-01-02T11:30:39.343Z,5.20
2019-01-02T11:34:51.838Z,5.70
2019-01-02T11:39:35.533Z,5.50
2019-01-02T11:45:18.848Z,5.30
2019-01-02T11:49:21.299Z,6.60
2019-01-02T11:53:23.733Z,6.00
2019-01-02T11:57:26.172Z,4.80
2019-01-02T12:01:29.388Z,5.80
2019-01-02T12:05:31.794Z,5.20
2019-01-02T12:09:34.218Z,5.30
2019-01-02T12:13:36.597Z,4.70
2019-01-02T12:17:38.998Z,5.00
2019-01-02T12:21:41.406Z,4.40
2019-01-02T12:25:43.766Z,5.20
2019-01-02T12:29:46.202Z,4.40
2019-01-02T12:33:48.545Z,4.70
2019-01-02T12:37:50.937Z,4.80
2019-01-02T12:41:53.297Z,4.00
2019-01-02T12:45:55.978Z,4.80
2019-01-02T12:49:58.346Z,4.30
2019-01-02T12:54:00.722Z,4.10
2019-01-02T12:58:03.143Z,4.10
2019-01-02T13:02:35.042Z,4.70
2019-01-02T13:08:54.371Z,4.30
2019-01-02T13:13:09.207Z,4.30
2019-01-02T13:17:22.654Z,4.40
2019-01-02T13:22:08.021Z,4.00
2019-01-02T13:26:24.240Z,3.80
2019-01-02T13:32:43.138Z,4.10
2019-01-02T13:37:56.120Z,5.20
2019-01-02T13:42:22.895Z,4.30
2019-01-02T13:46:38.029Z,5.50
2019-01-02T13:50:47.696Z,5.20
2019-01-02T13:54:50.956Z,6.30
2019-01-02T13:58:53.302Z,5.90
2019-01-02T14:02:55.630Z,4.30
2019-01-02T14:06:57.951Z,4.90
2019-01-02T14:11:00.281Z,4.40
2019-01-02T14:15:02.724Z,4.70
2019-01-02T14:19:05.154Z,4.30
2019-01-02T14:23:07.451Z,4.40
2019-01-02T14:27:09.790Z,4.60
2019-01-02T14:31:12.661Z,4.10
2019-01-02T14:35:15.002Z,4.20
2019-01-02T14:39:17.360Z,4.10
2019-01-02T14:43:19.705Z,3.90
2019-01-02T14:47:22.086Z,4.60
2019-01-02T14:51:24.437Z,4.00
2019-01-02T14:55:26.835Z,4.20
2019-01-02T14:59:29.226Z,3.70
2019-01-02T15:03:31.558Z,3.20
2019-01-02T15:07:33.994Z,3.50
2019-01-02T15:11:36.945Z,4.20
2019-01-02T15:15:39.316Z,3.20
2019-01-02T15:19:41.645Z,3.60
2019-01-02T15:23:44.038Z,4.90
2019-01-02T15:27:46.358Z,4.60
2019-01-02T15:31:48.944Z,5.40
2019-01-02T15:35:51.350Z,5.10
2019-01-02T15:39:53.810Z,5.10
2019-01-02T15:43:56.154Z,4.60
2019-01-02T15:47:58.469Z,4.60
2019-01-02T15:52:01.363Z,4.30
2019-01-02T15:56:03.785Z,5.10
2019-01-02T16:00:09.250Z,4.90
2019-01-02T16:08:36.679Z,5.60
2019-01-02T16:12:39.016Z,4.80
2019-01-02T16:16:42.415Z,5.40
2019-01-02T16:20:43.758Z,5.20
2019-01-02T16:24:46.119Z,5.00
2019-01-02T16:28:48.410Z,4.30
2019-01-02T16:32:50.711Z,3.50
2019-01-02T16:36:53.099Z,4.00
2019-01-02T16:40:55.419Z,5.30
2019-01-02T16:44:58.408Z,4.90
2019-01-02T16:49:00.781Z,4.90
2019-01-02T16:53:03.865Z,4.90
2019-01-02T16:57:06.241Z,3.90
2019-01-02T17:01:10.150Z,4.40
2019-01-02T17:05:12.563Z,4.00
2019-01-02T17:09:14.996Z,4.30
2019-01-02T17:13:17.397Z,3.60
2019-01-02T17:21:44.888Z,3.60
2019-01-02T17:25:47.206Z,3.40
2019-01-02T17:29:49.559Z,3.70
2019-01-02T17:33:52.569Z,4.20
2019-01-02T17:37:54.986Z,3.50
2019-01-02T17:41:57.412Z,4.20
2019-01-02T17:50:25.163Z,3.90
2019-01-02T17:54:27.618Z,3.60
2019-01-02T17:58:29.968Z,4.00
2019-01-02T18:02:32.380Z,4.20
2019-01-02T18:06:34.758Z,4.80
2019-01-02T18:10:38.299Z,3.20
2019-01-02T18:14:40.591Z,3.50
2019-01-02T18:18:43.486Z,3.70
2019-01-02T18:22:45.949Z,3.50
2019-01-02T18:26:48.337Z,4.00
2019-01-02T18:30:50.715Z,4.10
2019-01-02T18:34:53.233Z,4.00
2019-01-02T18:38:55.697Z,3.60
2019-01-02T18:42:58.076Z,4.40
2019-01-02T18:47:00.524Z,3.00
2019-01-02T18:51:04.176Z,3.60
2019-01-02T18:55:06.743Z,3.50
2019-01-02T18:59:09.071Z,4.20
2019-01-02T19:03:11.434Z,4.10
2019-01-02T19:07:14.763Z,4.10
2019-01-02T19:11:16.111Z,4.60
2019-01-02T19:15:18.463Z,4.20
2019-01-02T19:19:20.868Z,4.40
2019-01-02T19:23:23.378Z,4.50
2019-01-02T19:27:25.778Z,4.40
2019-01-02T19:31:28.179Z,3.90
2019-01-02T19:35:30.655Z,3.60
2019-01-02T19:39:33.838Z,2.80
2019-01-02T19:43:36.159Z,1.90
2019-01-02T19:47:38.660Z,2.30
2019-01-02T19:51:41.047Z,3.30
2019-01-02T19:55:43.523Z,2.20
2019-01-02T19:59:45.903Z,3.30
2019-01-02T20:03:48.342Z,2.80
2019-01-02T20:07:50.707Z,2.50
2019-01-02T20:11:53.032Z,3.20
2019-01-02T20:15:56.410Z,3.60
2019-01-02T20:19:59.014Z,4.10
2019-01-02T20:24:01.547Z,3.50
2019-01-02T20:28:04.037Z,3.60
2019-01-02T20:32:06.444Z,3.60
2019-01-02T20:36:08.874Z,3.60
2019-01-02T20:40:11.285Z,2.60
2019-01-02T20:44:13.823Z,3.40
2019-01-02T20:48:16.287Z,2.20
2019-01-02T20:52:18.679Z,2.90
2019-01-02T20:56:21.073Z,2.50
2019-01-02T21:00:23.515Z,2.20
2019-01-02T21:04:25.896Z,2.30
2019-01-02T21:08:28.270Z,2.20
2019-01-02T21:12:30.704Z,2.60
2019-01-02T21:16:33.106Z,3.10
2019-01-02T21:20:35.566Z,3.50
2019-01-02T21:24:38.000Z,3.80
2019-01-02T21:28:40.373Z,4.10
2019-01-02T21:32:42.809Z,4.20
2019-01-02T21:36:45.174Z,4.00
2019-01-02T21:40:48.938Z,3.80
2019-01-02T21:44:51.336Z,3.90
2019-01-02T21:48:53.683Z,3.90
2019-01-02T21:52:56.053Z,3.50
2019-01-02T21:56:58.447Z,3.60
2019-01-02T22:01:00.870Z,3.60
2019-01-02T22:05:03.407Z,3.50
2019-01-02T22:09:05.997Z,3.70
2019-01-02T22:13:08.368Z,3.80
2019-01-02T22:17:10.792Z,3.60
2019-01-02T22:25:40.443Z,3.50
2019-01-02T22:29:42.868Z,3.60
2019-01-02T22:33:45.208Z,3.50
2019-01-02T22:37:47.577Z,3.20
2019-01-02T22:41:49.948Z,3.00
2019-01-02T22:45:52.360Z,3.00
2019-01-02T22:49:54.792Z,3.10
2019-01-02T22:53:57.121Z,3.30
2019-01-02T22:57:59.456Z,3.30
2019-01-02T23:02:09.167Z,3.40
2019-01-02T23:06:19.412Z,3.10
2019-01-02T23:10:29.226Z,3.40
2019-01-02T23:14:36.112Z,2.80
2019-01-02T23:19:47.630Z,3.00
2019-01-02T23:23:55.672Z,2.80
2019-01-02T23:29:01.856Z,2.60
2019-01-02T23:33:15.650Z,1.80
2019-01-02T23:39:32.983Z,2.50
2019-01-02T23:45:46.421Z,1.90
2019-01-02T23:52:01.127Z,3.00
2019-01-02T23:56:08.022Z,2.40
